Akron, Michigan
Current Conditions -  °F | °C
As of 11:15 AM on Thursday 23 Oct 2014 (Local Time) from KCFS Reporting Station
Overcast Overcast  
Wind Chill:   Ceiling: 700
Heat Index:   Visibility: 7mi
Dew Point:   Wind: 0mph
Humidity: 89%   Direction: NA
Pressure: 30.24"   Gusts: NA
Location:  43.57°N, 83.51°W
Report Text: KCFS 231515Z AUTO 00000KT 7SM OVC007 06/04 A3024 RMK AO2 T00580041
Loading
Personal Weather Stations






























Interactive Weather Map
Tropical Storm Tracking
New forecast layout! Learn more

10-Day Weather Forecast

Advertisements
Track Severe Weather on mobile